Arbalist — J8B3636 — position and weather

sailwx.info

Track history (hours):
 
Tides and Currents Weather Stations Pressure Air Temp Water Temp Dewpoint Dewpoint Depression Visibility Wind Speed Wind Dir Waves Ship Positions

Arbalist

Last reported at 2015-Jul-05 16:06 UTC. Time now 2015-Jul-07 21:55 UTC.
Position N 41°01' E 028°60'.

Length 115 m; draft 4.5 m.

Type: Cargo ship. MMSI: 37579300.

Date/timePositionNaut miles runAvg speedWind from/ knotsBaromVisibWave heightAir tempDewpointWater temp
2015-Jul-05 16:06N 41°01' E 028°60'3 6.3
2015-Jul-05 15:33N 40°57' E 028°59'3 2.9
2015-Jul-05 14:28N 40°58' E 028°55'0 0.1
2015-Jul-05 13:28N 40°58' E 028°55'0 0.0
2015-Jul-05 12:16N 40°58' E 028°55'0 0.0
2015-Jul-05 11:16N 40°58' E 028°55'0 0.2
2015-Jul-05 10:31N 40°58' E 028°55'0 0.0
2015-Jul-05 09:27N 40°58' E 028°55'0 0.0
2015-Jul-05 08:24N 40°58' E 028°55'0 0.1
2015-Jul-05 07:24N 40°58' E 028°55'0 0.0
2015-Jul-05 06:33N 40°58' E 028°55'0 0.1
2015-Jul-05 05:12N 40°58' E 028°55'0 0.0
2015-Jul-05 04:29N 40°58' E 028°56'0 0.0
2015-Jul-04 23:29N 40°58' E 028°55'0 0.0
2015-Jul-04 20:16N 40°58' E 028°55'288 6.6
2015-Jul-03 00:28N 37°44' E 024°20'11 9.2
2015-Jul-02 23:18N 37°36' E 024°10'7 8.8
2015-Jul-02 22:29N 37°35' E 024°01'9 9.6
2015-Jul-02 21:33N 37°38' E 023°51'9 9.4
2015-Jul-02 20:33N 37°42' E 023°40'10 9.8
2015-Jul-02 19:34N 37°51' E 023°35'3 3.3
2015-Jul-02 18:34N 37°54' E 023°34'0 0.0
2015-Jul-02 17:33N 37°54' E 023°34'0 0.0
2015-Jul-02 16:33N 37°54' E 023°34'0 0.0
2015-Jul-02 15:33N 37°54' E 023°34'0 0.0
2015-Jul-02 14:34N 37°54' E 023°34'0 0.0
2015-Jul-02 13:33N 37°54' E 023°34'0 0.0
2015-Jul-02 12:33N 37°54' E 023°34'0 0.0
2015-Jul-02 11:33N 37°54' E 023°34'4 3.7
2015-Jul-02 10:33N 37°52' E 023°37'8 8.4
2015-Jul-02 09:33N 37°45' E 023°42'8 8.2
2015-Jul-02 08:33N 37°37' E 023°45'9 8.9
2015-Jul-02 07:33N 37°28' E 023°41'407 8.0
2015-Jun-30 04:33N 36°30' E 015°17'9 8.9
2015-Jun-30 03:33N 36°30' E 015°05'9 8.7
2015-Jun-30 02:33N 36°33' E 014°55'9 9.0
2015-Jun-30 01:33N 36°37' E 014°45'9 9.2
2015-Jun-30 00:33N 36°38' E 014°34'9 9.1
2015-Jun-29 23:33N 36°39' E 014°23'9 8.8
2015-Jun-29 22:33N 36°40' E 014°12'9 8.9
2015-Jun-29 21:33N 36°42' E 014°01'9 9.5
2015-Jun-29 20:33N 36°44' E 013°50'9 9.3
2015-Jun-29 19:33N 36°47' E 013°38'9 9.2
2015-Jun-29 18:33N 36°50' E 013°27'9 9.4
2015-Jun-29 17:33N 36°52' E 013°16'10 9.5
2015-Jun-29 16:33N 36°55' E 013°05'10 9.7
2015-Jun-29 15:33N 36°58' E 012°53'10 9.7
2015-Jun-29 14:33N 36°60' E 012°41'9 9.5
2015-Jun-29 13:33N 37°01' E 012°30'9 9.2
2015-Jun-29 12:33N 37°03' E 012°18'9 8.8
2015-Jun-29 11:33N 37°05' E 012°08'10 9.0
2015-Jun-29 10:28N 37°08' E 011°56'9 9.1
2015-Jun-29 09:29N 37°10' E 011°45'10 9.4
2015-Jun-29 08:27N 37°13' E 011°33'8 9.6
2015-Jun-29 07:33N 37°17' E 011°24'30 9.9
2015-Jun-29 04:33N 37°28' E 010°49'3010.1
2015-Jun-29 01:32N 37°34' E 010°11'1010.0
2015-Jun-29 00:32N 37°32' E 009°59'79 9.9
2015-Jun-28 16:33N 37°14' E 008°21'224 9.2
2015-Jun-27 16:09N 37°02' E 003°41'5 8.4
2015-Jun-27 15:29N 37°01' E 003°34'8 8.9
2015-Jun-27 14:33N 36°60' E 003°24'11 9.1
2015-Jun-27 13:22N 36°59' E 003°11'8 9.4
2015-Jun-27 12:33N 36°58' E 003°01'9 9.3
2015-Jun-27 11:33N 36°56' E 002°50'9 9.3
2015-Jun-27 10:33N 36°54' E 002°38'9 9.0
2015-Jun-27 09:33N 36°53' E 002°27'10 9.6
2015-Jun-27 08:33N 36°51' E 002°15'10 9.9
2015-Jun-27 07:33N 36°49' E 002°03'10 9.7
2015-Jun-27 06:30N 36°47' E 001°51'9 9.6
2015-Jun-27 05:33N 36°45' E 001°40'10 9.4
2015-Jun-27 04:32N 36°43' E 001°28'9 9.2
2015-Jun-27 03:33N 36°42' E 001°17'9 9.4
2015-Jun-27 02:33N 36°40' E 001°06'9 9.4
2015-Jun-27 01:33N 36°38' E 000°54'10 9.8
2015-Jun-27 00:33N 36°35' E 000°43'10 9.7
2015-Jun-26 23:34N 36°31' E 000°32'9 9.5
2015-Jun-26 22:33N 36°26' E 000°22'10 9.7
2015-Jun-26 21:30N 36°18' E 000°13'9 9.5
2015-Jun-26 20:33N 36°11' E 000°07'9 9.3
2015-Jun-26 19:33N 36°04' W 000°01'9 9.1
2015-Jun-26 18:32N 35°57' W 000°09'8 6.6
2015-Jun-26 17:21N 35°51' W 000°15'0 0.0
2015-Jun-26 16:33N 35°51' W 000°15'0 0.3
2015-Jun-26 15:33N 35°51' W 000°15'9 8.6
2015-Jun-26 14:33N 35°60' W 000°13'1 0.6
2015-Jun-26 13:32N 35°60' W 000°13'0 0.4
2015-Jun-26 12:34N 35°59' W 000°12'7 6.8
2015-Jun-26 11:33N 35°60' W 000°21'9 9.4
2015-Jun-26 10:33N 36°03' W 000°31'10 9.6
2015-Jun-26 09:33N 36°04' W 000°43'58 9.4
2015-Jun-26 03:25N 36°09' W 001°54'8 9.1
2015-Jun-26 02:33N 36°09' W 002°04'21 9.0
2015-Jun-26 00:12N 36°09' W 002°30'10 8.5
2015-Jun-25 23:05N 36°08' W 002°42'8 8.8
2015-Jun-25 22:11N 36°08' W 002°52'15 9.2
2015-Jun-25 20:33N 36°09' W 003°10'10 9.6
2015-Jun-25 19:33N 36°09' W 003°22'1010.5
2015-Jun-25 18:33N 36°07' W 003°35'  
Track history (hours):
 
Tides and Currents Weather Stations Pressure Air Temp Water Temp Dewpoint Dewpoint Depression Visibility Wind Speed Wind Dir Waves Ship Positions

Arbalist

Last reported at 2015-Jul-05 16:06 UTC. Time now 2015-Jul-07 21:55 UTC.
Position N 41°01' E 028°60'.

Length 115 m; draft 4.5 m.

Type: Cargo ship. MMSI: 37579300.

Date/timePositionNaut miles runAvg speedWind from/ knotsBaromVisibWave heightAir tempDewpointWater temp
2015-Jul-05 16:06N 41°01' E 028°60'3 6.3
2015-Jul-05 15:33N 40°57' E 028°59'3 2.9
2015-Jul-05 14:28N 40°58' E 028°55'0 0.1
2015-Jul-05 13:28N 40°58' E 028°55'0 0.0
2015-Jul-05 12:16N 40°58' E 028°55'0 0.0
2015-Jul-05 11:16N 40°58' E 028°55'0 0.2
2015-Jul-05 10:31N 40°58' E 028°55'0 0.0
2015-Jul-05 09:27N 40°58' E 028°55'0 0.0
2015-Jul-05 08:24N 40°58' E 028°55'0 0.1
2015-Jul-05 07:24N 40°58' E 028°55'0 0.0
2015-Jul-05 06:33N 40°58' E 028°55'0 0.1
2015-Jul-05 05:12N 40°58' E 028°55'0 0.0
2015-Jul-05 04:29N 40°58' E 028°56'0 0.0
2015-Jul-04 23:29N 40°58' E 028°55'0 0.0
2015-Jul-04 20:16N 40°58' E 028°55'288 6.6
2015-Jul-03 00:28N 37°44' E 024°20'11 9.2
2015-Jul-02 23:18N 37°36' E 024°10'7 8.8
2015-Jul-02 22:29N 37°35' E 024°01'9 9.6
2015-Jul-02 21:33N 37°38' E 023°51'9 9.4
2015-Jul-02 20:33N 37°42' E 023°40'10 9.8
2015-Jul-02 19:34N 37°51' E 023°35'3 3.3
2015-Jul-02 18:34N 37°54' E 023°34'0 0.0
2015-Jul-02 17:33N 37°54' E 023°34'0 0.0
2015-Jul-02 16:33N 37°54' E 023°34'0 0.0
2015-Jul-02 15:33N 37°54' E 023°34'0 0.0
2015-Jul-02 14:34N 37°54' E 023°34'0 0.0
2015-Jul-02 13:33N 37°54' E 023°34'0 0.0
2015-Jul-02 12:33N 37°54' E 023°34'0 0.0
2015-Jul-02 11:33N 37°54' E 023°34'4 3.7
2015-Jul-02 10:33N 37°52' E 023°37'8 8.4
2015-Jul-02 09:33N 37°45' E 023°42'8 8.2
2015-Jul-02 08:33N 37°37' E 023°45'9 8.9
2015-Jul-02 07:33N 37°28' E 023°41'407 8.0
2015-Jun-30 04:33N 36°30' E 015°17'9 8.9
2015-Jun-30 03:33N 36°30' E 015°05'9 8.7
2015-Jun-30 02:33N 36°33' E 014°55'9 9.0
2015-Jun-30 01:33N 36°37' E 014°45'9 9.2
2015-Jun-30 00:33N 36°38' E 014°34'9 9.1
2015-Jun-29 23:33N 36°39' E 014°23'9 8.8
2015-Jun-29 22:33N 36°40' E 014°12'9 8.9
2015-Jun-29 21:33N 36°42' E 014°01'9 9.5
2015-Jun-29 20:33N 36°44' E 013°50'9 9.3
2015-Jun-29 19:33N 36°47' E 013°38'9 9.2
2015-Jun-29 18:33N 36°50' E 013°27'9 9.4
2015-Jun-29 17:33N 36°52' E 013°16'10 9.5
2015-Jun-29 16:33N 36°55' E 013°05'10 9.7
2015-Jun-29 15:33N 36°58' E 012°53'10 9.7
2015-Jun-29 14:33N 36°60' E 012°41'9 9.5
2015-Jun-29 13:33N 37°01' E 012°30'9 9.2
2015-Jun-29 12:33N 37°03' E 012°18'9 8.8
2015-Jun-29 11:33N 37°05' E 012°08'10 9.0
2015-Jun-29 10:28N 37°08' E 011°56'9 9.1
2015-Jun-29 09:29N 37°10' E 011°45'10 9.4
2015-Jun-29 08:27N 37°13' E 011°33'8 9.6
2015-Jun-29 07:33N 37°17' E 011°24'30 9.9
2015-Jun-29 04:33N 37°28' E 010°49'3010.1
2015-Jun-29 01:32N 37°34' E 010°11'1010.0
2015-Jun-29 00:32N 37°32' E 009°59'79 9.9
2015-Jun-28 16:33N 37°14' E 008°21'224 9.2
2015-Jun-27 16:09N 37°02' E 003°41'5 8.4
2015-Jun-27 15:29N 37°01' E 003°34'8 8.9
2015-Jun-27 14:33N 36°60' E 003°24'11 9.1
2015-Jun-27 13:22N 36°59' E 003°11'8 9.4
2015-Jun-27 12:33N 36°58' E 003°01'9 9.3
2015-Jun-27 11:33N 36°56' E 002°50'9 9.3
2015-Jun-27 10:33N 36°54' E 002°38'9 9.0
2015-Jun-27 09:33N 36°53' E 002°27'10 9.6
2015-Jun-27 08:33N 36°51' E 002°15'10 9.9
2015-Jun-27 07:33N 36°49' E 002°03'10 9.7
2015-Jun-27 06:30N 36°47' E 001°51'9 9.6
2015-Jun-27 05:33N 36°45' E 001°40'10 9.4
2015-Jun-27 04:32N 36°43' E 001°28'9 9.2
2015-Jun-27 03:33N 36°42' E 001°17'9 9.4
2015-Jun-27 02:33N 36°40' E 001°06'9 9.4
2015-Jun-27 01:33N 36°38' E 000°54'10 9.8
2015-Jun-27 00:33N 36°35' E 000°43'10 9.7
2015-Jun-26 23:34N 36°31' E 000°32'9 9.5
2015-Jun-26 22:33N 36°26' E 000°22'10 9.7
2015-Jun-26 21:30N 36°18' E 000°13'9 9.5
2015-Jun-26 20:33N 36°11' E 000°07'9 9.3
2015-Jun-26 19:33N 36°04' W 000°01'9 9.1
2015-Jun-26 18:32N 35°57' W 000°09'8 6.6
2015-Jun-26 17:21N 35°51' W 000°15'0 0.0
2015-Jun-26 16:33N 35°51' W 000°15'0 0.3
2015-Jun-26 15:33N 35°51' W 000°15'9 8.6
2015-Jun-26 14:33N 35°60' W 000°13'1 0.6
2015-Jun-26 13:32N 35°60' W 000°13'0 0.4
2015-Jun-26 12:34N 35°59' W 000°12'7 6.8
2015-Jun-26 11:33N 35°60' W 000°21'9 9.4
2015-Jun-26 10:33N 36°03' W 000°31'10 9.6
2015-Jun-26 09:33N 36°04' W 000°43'58 9.4
2015-Jun-26 03:25N 36°09' W 001°54'8 9.1
2015-Jun-26 02:33N 36°09' W 002°04'21 9.0
2015-Jun-26 00:12N 36°09' W 002°30'10 8.5
2015-Jun-25 23:05N 36°08' W 002°42'8 8.8
2015-Jun-25 22:11N 36°08' W 002°52'15 9.2
2015-Jun-25 20:33N 36°09' W 003°10'10 9.6
2015-Jun-25 19:33N 36°09' W 003°22'1010.5
2015-Jun-25 18:33N 36°07' W 003°35'  

Dump ship's entire track history